Terminal Aerodrome Forecast
Issued by NWS La Crosse, WI

Home | Current Version | Previous Version | Text Only | Print | Product List | Glossary On
Versions: 1 2 3 4 5 6 7 8 9 10 11 12 13 14 15 16 17 18 19 20
000
FTUS43 KARX 191139 CCA
TAFRST
TAF COR
KRST 191139Z 1912/2012 16021G28KT P6SM SCT200
     FM191500 18023G30KT P6SM SCT200
     FM192100 19020G28KT P6SM BKN130
     FM200000 19012KT P6SM VCSH BKN050
     FM200600 21010KT P6SM -SHRA BKN040=

USA.gov is the U.S. government's official web portal to all federal, state and local government web resources and services.